createdAt,value
2022-11-14T00:00:40.294Z,593.4
2022-11-14T00:01:42.500Z,593.4
2022-11-14T00:02:45.350Z,592.9
2022-11-14T00:03:47.716Z,592.6
2022-11-14T00:04:49.904Z,592.1
2022-11-14T00:05:51.826Z,592.3
2022-11-14T00:06:54.962Z,592.3
2022-11-14T00:07:56.918Z,592.5
2022-11-14T00:08:59.400Z,592.8
2022-11-14T00:10:01.625Z,592.8
2022-11-14T00:11:03.559Z,593
2022-11-14T00:12:05.766Z,593.3
2022-11-14T00:13:07.941Z,593.3
2022-11-14T00:14:10.415Z,593.8
2022-11-14T00:15:12.890Z,594.3
2022-11-14T00:16:15.625Z,594.3
2022-11-14T00:17:18.111Z,594.2
2022-11-14T00:18:20.583Z,594.7
2022-11-14T00:19:22.892Z,595
2022-11-14T00:20:25.087Z,594.9
2022-11-14T00:21:27.559Z,595.4
2022-11-14T00:22:30.256Z,595.4
2022-11-14T00:23:32.173Z,595.5
2022-11-14T00:24:34.112Z,595.7
2022-11-14T00:25:36.028Z,596.5
2022-11-14T00:26:37.665Z,596.2
2022-11-14T00:27:40.132Z,596.6
2022-11-14T00:28:42.616Z,596.7
2022-11-14T00:29:44.834Z,597.3
2022-11-14T00:30:47.032Z,596.9
2022-11-14T00:31:49.440Z,596.8
2022-11-14T00:32:51.458Z,597.1
2022-11-14T00:33:53.949Z,597.5
2022-11-14T00:34:56.537Z,597.2
2022-11-14T00:35:59.006Z,597.7
2022-11-14T00:37:00.938Z,597.4
2022-11-14T00:38:03.386Z,597.3
2022-11-14T00:39:05.575Z,597.3
2022-11-14T00:40:07.798Z,597.3
2022-11-14T00:41:09.729Z,597.6
2022-11-14T00:42:12.197Z,597.5
2022-11-14T00:43:14.116Z,597.4
2022-11-14T00:44:16.588Z,597.6
2022-11-14T00:45:19.161Z,597.5
2022-11-14T00:46:21.343Z,597
2022-11-14T00:47:24.046Z,597.3
2022-11-14T00:48:26.284Z,596.9
2022-11-14T00:49:28.757Z,596.6
2022-11-14T00:50:31.082Z,595.8
2022-11-14T00:51:33.265Z,595.5
2022-11-14T00:52:35.183Z,595.2
2022-11-14T00:53:37.892Z,594.4
2022-11-14T00:54:40.085Z,593.9
2022-11-14T00:55:42.555Z,593.7
2022-11-14T00:56:44.472Z,593.9
2022-11-14T00:57:45.821Z,593.7
2022-11-14T00:58:48.015Z,594.1
2022-11-14T00:59:50.488Z,594.3
2022-11-14T01:00:53.094Z,594.4
2022-11-14T01:03:00.541Z,594.8
2022-11-14T01:04:02.745Z,594.7
2022-11-14T01:05:05.219Z,594.8
2022-11-14T01:06:07.634Z,594.5
2022-11-14T01:07:09.836Z,594.2
2022-11-14T01:08:12.036Z,594.2
2022-11-14T01:09:14.764Z,594.5
2022-11-14T01:10:16.706Z,594.4
2022-11-14T01:11:19.182Z,594.2
2022-11-14T01:12:21.386Z,594.2
2022-11-14T01:13:23.590Z,593.9
2022-11-14T01:14:26.052Z,594.3
2022-11-14T01:15:28.538Z,593.6
2022-11-14T01:16:31.008Z,593.7
2022-11-14T01:17:33.491Z,593.7
2022-11-14T01:18:36.188Z,593.7
2022-11-14T01:19:38.379Z,594.1
2022-11-14T01:20:40.865Z,593.7
2022-11-14T01:21:43.367Z,593.7
2022-11-14T01:22:45.642Z,593.9
2022-11-14T01:23:47.838Z,594.2
2022-11-14T01:24:50.268Z,594.7
2022-11-14T01:25:52.741Z,594.9
2022-11-14T01:26:55.228Z,594.7
2022-11-14T01:27:57.435Z,594.5
2022-11-14T01:28:59.634Z,595.1
2022-11-14T01:30:01.851Z,594.8
2022-11-14T01:31:04.046Z,594.2
2022-11-14T01:32:06.522Z,593.6
2022-11-14T01:33:08.987Z,593.5
2022-11-14T01:34:11.616Z,593
2022-11-14T01:35:14.081Z,592.9
2022-11-14T01:36:16.277Z,592.9
2022-11-14T01:37:18.853Z,593.3
2022-11-14T01:38:21.055Z,593.1
2022-11-14T01:39:23.522Z,593.6
2022-11-14T01:40:25.950Z,593.8
2022-11-14T01:41:28.414Z,593.6
2022-11-14T01:42:30.908Z,593.7
2022-11-14T01:43:32.834Z,593.9
2022-11-14T01:44:34.472Z,594
2022-11-14T01:45:36.671Z,594.1
2022-11-14T01:46:39.140Z,594.3
2022-11-14T01:47:41.046Z,594.3
2022-11-14T01:48:43.520Z,594.2
2022-11-14T01:49:45.646Z,594.2
2022-11-14T01:50:48.126Z,594.3
2022-11-14T01:51:50.322Z,594.5
2022-11-14T01:52:52.932Z,594.9
2022-11-14T01:53:55.132Z,595.3
2022-11-14T01:54:57.616Z,595.2
2022-11-14T01:56:00.087Z,595.6
2022-11-14T01:57:02.573Z,596
2022-11-14T01:58:05.054Z,595.9
2022-11-14T01:59:06.975Z,596.2
2022-11-14T02:00:08.904Z,596.5
2022-11-14T02:01:11.430Z,596.8
2022-11-14T02:02:13.937Z,596.5
2022-11-14T02:03:16.424Z,597
2022-11-14T02:04:18.893Z,597.1
2022-11-14T02:05:23.389Z,597
2022-11-14T02:06:25.878Z,597.2
2022-11-14T02:07:28.812Z,597.2
2022-11-14T02:08:32.827Z,597.1
2022-11-14T02:09:35.100Z,597.5
2022-11-14T02:10:37.296Z,597.8
2022-11-14T02:11:39.725Z,598
2022-11-14T02:12:41.360Z,597.8
2022-11-14T02:13:43.266Z,598.3
2022-11-14T02:14:45.782Z,598.8
2022-11-14T02:15:48.293Z,598.8
2022-11-14T02:17:55.486Z,598
2022-11-14T02:18:57.944Z,597.5
2022-11-14T02:21:05.632Z,597.6
2022-11-14T02:22:08.121Z,597.7
2022-11-14T02:23:10.310Z,597.5
2022-11-14T02:24:13.007Z,597.9
2022-11-14T02:25:15.496Z,597.9
2022-11-14T02:26:17.965Z,598
2022-11-14T02:27:20.392Z,598
2022-11-14T02:28:22.871Z,598.1
2022-11-14T02:29:25.348Z,597.9
2022-11-14T02:30:27.856Z,598.5
2022-11-14T02:31:29.776Z,598.2
2022-11-14T02:33:37.236Z,598.1
2022-11-14T02:34:39.137Z,598.7
2022-11-14T02:35:41.055Z,598.6
2022-11-14T02:36:43.744Z,599
2022-11-14T02:37:45.941Z,599.5
2022-11-14T02:38:48.130Z,599.4
2022-11-14T02:39:50.710Z,599.9
2022-11-14T02:40:53.177Z,599.5
2022-11-14T02:41:55.097Z,599.8
2022-11-14T02:42:57.785Z,600
2022-11-14T02:44:00.251Z,599.9
2022-11-14T02:45:02.173Z,599.9
2022-11-14T02:47:09.635Z,599.7
2022-11-14T02:48:12.517Z,599
2022-11-14T02:49:15.002Z,598.7
2022-11-14T02:50:17.202Z,598.4
2022-11-14T02:51:19.380Z,598.2
2022-11-14T02:52:21.825Z,597.9
2022-11-14T02:53:24.024Z,597.8
2022-11-14T02:54:26.212Z,598.2
2022-11-14T02:55:28.223Z,598.6
2022-11-14T02:56:30.415Z,598.6
2022-11-14T02:57:32.617Z,598.8
2022-11-14T02:58:35.510Z,598.9
2022-11-14T02:59:37.979Z,599.3
2022-11-14T03:01:46.026Z,600.2
2022-11-14T03:02:48.247Z,600.7
2022-11-14T03:03:50.171Z,601
2022-11-14T03:04:52.354Z,601.1
2022-11-14T03:05:54.588Z,601.2
2022-11-14T03:06:57.134Z,601.7
2022-11-14T03:07:59.321Z,601.6
2022-11-14T03:09:01.786Z,601.5
2022-11-14T03:10:03.989Z,601.2
2022-11-14T03:11:06.337Z,601.1
2022-11-14T03:12:08.807Z,600.7
2022-11-14T03:13:11.301Z,600.5
2022-11-14T03:14:13.746Z,600.3
2022-11-14T03:15:16.227Z,600.5
2022-11-14T03:16:18.694Z,600.8
2022-11-14T03:17:20.866Z,600.8
2022-11-14T03:18:23.040Z,601.3
2022-11-14T03:19:25.533Z,601.5
2022-11-14T03:20:28.010Z,602
2022-11-14T03:21:30.202Z,602.3
2022-11-14T03:22:32.419Z,602
2022-11-14T03:23:35.109Z,601.9
2022-11-14T03:24:37.032Z,602.2
2022-11-14T03:25:39.491Z,602.5
2022-11-14T03:26:41.818Z,602.1
2022-11-14T03:27:44.283Z,602.3
2022-11-14T03:28:46.462Z,602
2022-11-14T03:29:49.164Z,602.3
2022-11-14T03:30:51.091Z,602.3
2022-11-14T03:31:53.277Z,602.7
2022-11-14T03:32:55.473Z,602.8
2022-11-14T03:33:57.964Z,603
2022-11-14T03:35:00.442Z,602.9
2022-11-14T03:36:02.660Z,602.9
2022-11-14T03:37:04.575Z,602.9
2022-11-14T03:38:06.492Z,603
2022-11-14T03:39:08.907Z,603.3
2022-11-14T03:40:11.082Z,603.5
2022-11-14T03:41:13.271Z,603.4
2022-11-14T03:42:15.866Z,603.3
2022-11-14T03:43:18.351Z,601.6
2022-11-14T03:44:20.819Z,600.3
2022-11-14T03:45:23.249Z,599.6
2022-11-14T03:46:25.432Z,599.6
2022-11-14T03:47:27.906Z,601
2022-11-14T03:48:32.981Z,600.9
2022-11-14T03:49:35.283Z,600.3
2022-11-14T03:50:37.477Z,599.4
2022-11-14T03:51:39.945Z,599.7
2022-11-14T03:52:41.858Z,599.8
2022-11-14T03:53:44.326Z,600.1
2022-11-14T03:54:47.076Z,600
2022-11-14T03:55:49.274Z,600.3
2022-11-14T03:56:51.468Z,600.2
2022-11-14T03:57:54.044Z,599.7
2022-11-14T03:58:56.514Z,599.9
2022-11-14T03:59:58.235Z,600.3
2022-11-14T04:01:01.089Z,600.5
2022-11-14T04:02:03.609Z,600.8
2022-11-14T04:03:06.100Z,600.3
2022-11-14T04:04:08.270Z,600.6
2022-11-14T04:05:10.491Z,600.3
2022-11-14T04:06:12.667Z,600.5
2022-11-14T04:07:15.348Z,600.5
2022-11-14T04:08:17.858Z,600.4
2022-11-14T04:09:20.332Z,600.4
2022-11-14T04:10:22.774Z,600.5
2022-11-14T04:11:24.715Z,600.3
2022-11-14T04:12:26.891Z,600.5
2022-11-14T04:13:29.210Z,600.4
2022-11-14T04:14:31.672Z,601
2022-11-14T04:15:33.872Z,601.2
2022-11-14T04:16:36.603Z,601
2022-11-14T04:18:43.784Z,599.8
2022-11-14T04:19:46.246Z,598.5
2022-11-14T04:20:48.435Z,598.3
2022-11-14T04:21:50.621Z,599.4
2022-11-14T04:22:52.538Z,600.3
2022-11-14T04:23:54.723Z,600.3
2022-11-14T04:24:57.195Z,599.6
2022-11-14T04:25:59.903Z,599.6
2022-11-14T04:27:02.140Z,600.2
2022-11-14T04:28:04.613Z,601
2022-11-14T04:29:06.934Z,601.5
2022-11-14T04:30:08.850Z,602
2022-11-14T04:31:11.324Z,601.6
2022-11-14T04:32:14.027Z,602.3
2022-11-14T04:33:16.506Z,602.8
2022-11-14T04:34:18.445Z,602.9
2022-11-14T04:35:20.968Z,603.2
2022-11-14T04:36:23.223Z,602.8
2022-11-14T04:37:25.713Z,602.6
2022-11-14T04:38:29.260Z,602.4
2022-11-14T04:39:31.301Z,602.5
2022-11-14T04:40:33.518Z,602.1
2022-11-14T04:41:36.222Z,602.4
2022-11-14T04:42:38.850Z,602.2
2022-11-14T04:43:40.826Z,602.4
2022-11-14T04:44:43.258Z,602.4
2022-11-14T04:45:45.772Z,602.7
2022-11-14T04:46:47.688Z,602.8
2022-11-14T04:47:50.485Z,602.6
2022-11-14T04:48:53.005Z,602.2
2022-11-14T04:49:55.462Z,602.1
2022-11-14T04:50:57.995Z,601.8
2022-11-14T04:52:00.247Z,601.8
2022-11-14T04:53:02.761Z,601.9
2022-11-14T04:54:05.268Z,602.1
2022-11-14T04:55:07.738Z,602
2022-11-14T04:56:09.665Z,601.9
2022-11-14T04:57:12.369Z,601.6
2022-11-14T04:58:14.027Z,601.5
2022-11-14T05:00:21.487Z,601.3
2022-11-14T05:01:24.130Z,601.3
2022-11-14T05:02:26.064Z,601
2022-11-14T05:03:28.305Z,601.6
2022-11-14T05:04:30.498Z,601.1
2022-11-14T05:05:32.692Z,601.7
2022-11-14T05:06:35.175Z,601.4
2022-11-14T05:07:38.143Z,601.2
2022-11-14T05:08:40.632Z,601.4
2022-11-14T05:09:43.103Z,601.4
2022-11-14T05:10:45.303Z,601.6
2022-11-14T05:11:47.773Z,602
2022-11-14T05:12:50.015Z,602.3
2022-11-14T05:13:52.507Z,602.4
2022-11-14T05:14:54.723Z,602
2022-11-14T05:15:57.193Z,601.8
2022-11-14T05:16:59.402Z,601.6
2022-11-14T05:18:01.877Z,601.6
2022-11-14T05:19:04.672Z,601.5
2022-11-14T05:20:06.861Z,601.1
2022-11-14T05:21:08.503Z,601.2
2022-11-14T05:22:10.969Z,600.7
2022-11-14T05:23:13.439Z,600.5
2022-11-14T05:24:15.909Z,600.7
2022-11-14T05:25:18.400Z,601.1
2022-11-14T05:26:20.873Z,600.5
2022-11-14T05:27:23.065Z,600.8
2022-11-14T05:28:25.332Z,601
2022-11-14T05:29:27.828Z,601.6
2022-11-14T05:30:30.382Z,601.6
2022-11-14T05:31:32.875Z,601.4
2022-11-14T05:32:35.387Z,601
2022-11-14T05:33:37.867Z,601
2022-11-14T05:34:40.404Z,601.1
2022-11-14T05:35:42.602Z,601.1
2022-11-14T05:36:45.073Z,601.3
2022-11-14T05:37:46.726Z,601.4
2022-11-14T05:38:48.634Z,601.2
2022-11-14T05:39:51.111Z,601.5
2022-11-14T05:40:53.591Z,601.8
2022-11-14T05:41:56.076Z,601.6
2022-11-14T05:42:58.276Z,601.6
2022-11-14T05:44:00.523Z,601.6
2022-11-14T05:45:02.997Z,601.5
2022-11-14T05:46:05.243Z,601.4
2022-11-14T05:47:07.432Z,601.2
2022-11-14T05:48:09.460Z,601.3
2022-11-14T05:49:11.651Z,601.3
2022-11-14T05:50:13.905Z,601.2
2022-11-14T05:51:16.105Z,601
2022-11-14T05:52:18.308Z,600.7
2022-11-14T05:53:20.784Z,600.8
2022-11-14T05:54:23.264Z,600.9
2022-11-14T05:55:26.959Z,601
2022-11-14T05:56:29.248Z,600.9
2022-11-14T05:57:31.761Z,600.6
2022-11-14T05:58:35.015Z,600.4
2022-11-14T05:59:37.540Z,599.9
2022-11-14T06:01:45.379Z,599.8
2022-11-14T06:02:47.325Z,599.9
2022-11-14T06:03:49.532Z,599.8
2022-11-14T06:04:52.016Z,599.9
2022-11-14T06:05:54.567Z,599.4
2022-11-14T06:06:57.020Z,599.9
2022-11-14T06:07:59.583Z,600
2022-11-14T06:09:02.065Z,599.6
2022-11-14T06:10:04.264Z,600
2022-11-14T06:11:06.465Z,599.5
2022-11-14T06:12:08.419Z,599.1
2022-11-14T06:13:10.607Z,598.5
2022-11-14T06:14:13.131Z,598.1
2022-11-14T06:15:15.648Z,598.5
2022-11-14T06:16:18.157Z,598
2022-11-14T06:17:20.619Z,598.3
2022-11-14T06:18:23.092Z,598.6
2022-11-14T06:19:25.617Z,598.8
2022-11-14T06:20:27.814Z,598.7
2022-11-14T06:21:29.484Z,598.5
2022-11-14T06:22:31.398Z,598.2
2022-11-14T06:23:33.317Z,598
2022-11-14T06:24:35.797Z,598.1
2022-11-14T06:25:37.731Z,597.9
2022-11-14T06:26:39.933Z,597.6
2022-11-14T06:27:41.843Z,597.5
2022-11-14T06:28:44.317Z,597.4
2022-11-14T06:29:46.523Z,597.3
2022-11-14T06:30:49.053Z,596.8
2022-11-14T06:31:51.540Z,596.3
2022-11-14T06:32:53.772Z,596.1
2022-11-14T06:33:56.001Z,596.4
2022-11-14T06:34:58.533Z,596.4
2022-11-14T06:36:00.468Z,596.2
2022-11-14T06:37:02.414Z,596.3
2022-11-14T06:38:04.624Z,596.5
2022-11-14T06:39:06.829Z,596.5
2022-11-14T06:40:09.016Z,596.7
2022-11-14T06:41:11.498Z,597.1
2022-11-14T06:42:13.130Z,597.5
2022-11-14T06:43:15.330Z,597.5
2022-11-14T06:44:17.798Z,597.7
2022-11-14T06:45:21.323Z,597.8
2022-11-14T06:46:23.838Z,597.8
2022-11-14T06:47:26.049Z,597.7
2022-11-14T06:48:29.836Z,597.9
2022-11-14T06:50:38.443Z,596.9
2022-11-14T06:51:40.621Z,597.1
2022-11-14T06:52:42.876Z,596.8
2022-11-14T06:53:45.341Z,597.1
2022-11-14T06:54:47.269Z,596.9
2022-11-14T06:55:49.475Z,596.9
2022-11-14T06:56:51.688Z,596.9
2022-11-14T06:57:53.903Z,596.7
2022-11-14T06:58:55.842Z,597
2022-11-14T06:59:58.312Z,596.9
2022-11-14T07:01:00.520Z,597.2
2022-11-14T07:02:03.047Z,597.1
2022-11-14T07:03:05.104Z,597.2
2022-11-14T07:04:07.621Z,597.3
2022-11-14T07:05:09.867Z,597.5
2022-11-14T07:06:12.099Z,597.6
2022-11-14T07:07:14.950Z,597.4
2022-11-14T07:09:22.501Z,597.1
2022-11-14T07:10:24.423Z,596.9
2022-11-14T07:11:26.648Z,597
2022-11-14T07:12:28.585Z,597.2
2022-11-14T07:13:30.809Z,597.5
2022-11-14T07:14:32.996Z,597.7
2022-11-14T07:15:35.477Z,598.1
2022-11-14T07:16:37.396Z,598.2
2022-11-14T07:17:39.915Z,598.1
2022-11-14T07:18:42.407Z,598.3
2022-11-14T07:19:44.314Z,598.4
2022-11-14T07:20:46.228Z,598.1
2022-11-14T07:21:48.461Z,598.2
2022-11-14T07:22:50.374Z,598.4
2022-11-14T07:23:52.850Z,597.9
2022-11-14T07:24:54.843Z,598.2
2022-11-14T07:25:57.332Z,598.1
2022-11-14T07:26:59.818Z,598
2022-11-14T07:28:02.312Z,598.2
2022-11-14T07:29:05.156Z,597.8
2022-11-14T07:30:07.350Z,598.2
2022-11-14T07:31:09.826Z,597.8
2022-11-14T07:32:12.320Z,598.1
2022-11-14T07:33:14.571Z,598.3
2022-11-14T07:34:16.766Z,598.5
2022-11-14T07:35:18.993Z,598.7
2022-11-14T07:36:21.470Z,598.9
2022-11-14T07:37:23.702Z,599.2
2022-11-14T07:38:26.181Z,599.2
2022-11-14T07:39:28.378Z,599.2
2022-11-14T07:40:30.754Z,599.2
2022-11-14T07:41:33.232Z,599
2022-11-14T07:42:35.720Z,598.9
2022-11-14T07:43:37.938Z,598.1
2022-11-14T07:44:40.151Z,598
2022-11-14T07:45:42.639Z,598.3
2022-11-14T07:46:44.869Z,597.9
2022-11-14T07:47:47.380Z,598.3
2022-11-14T07:48:49.918Z,598.9
2022-11-14T07:49:52.438Z,598.8
2022-11-14T07:50:54.935Z,598.5
2022-11-14T07:51:56.866Z,598.7
2022-11-14T07:52:59.121Z,598.4
2022-11-14T07:54:01.597Z,597.6
2022-11-14T07:55:03.831Z,597.7
2022-11-14T07:56:06.059Z,598.3
2022-11-14T07:57:08.264Z,598.2
2022-11-14T07:58:10.457Z,598.6
2022-11-14T07:59:12.911Z,598.7
2022-11-14T08:00:15.090Z,598.1
2022-11-14T08:01:17.338Z,598.6
2022-11-14T08:02:19.558Z,598.9
2022-11-14T08:03:22.037Z,599.7
2022-11-14T08:04:24.569Z,599.6
2022-11-14T08:05:26.843Z,599.9
2022-11-14T08:06:29.047Z,599.6
2022-11-14T08:07:32.028Z,599
2022-11-14T08:08:35.166Z,599.1
2022-11-14T08:09:37.383Z,599.4
2022-11-14T08:10:39.598Z,599.7
2022-11-14T08:11:42.117Z,599.7
2022-11-14T08:12:44.340Z,599.8
2022-11-14T08:13:46.809Z,599.5
2022-11-14T08:14:48.744Z,599.8
2022-11-14T08:15:51.218Z,600
2022-11-14T08:16:53.164Z,600.2
2022-11-14T08:17:55.644Z,600
2022-11-14T08:18:57.853Z,600.1
2022-11-14T08:20:00.417Z,600.4
2022-11-14T08:21:02.416Z,600.7
2022-11-14T08:22:04.615Z,600.5
2022-11-14T08:23:06.827Z,600.8
2022-11-14T08:24:09.052Z,600.7
2022-11-14T08:25:10.699Z,600.5
2022-11-14T08:26:12.874Z,600.4
2022-11-14T08:27:15.143Z,600.2
2022-11-14T08:28:17.655Z,600.3
2022-11-14T08:29:19.593Z,601.2
2022-11-14T08:30:22.126Z,602.4
2022-11-14T08:31:24.608Z,602.5
2022-11-14T08:32:26.568Z,602.9
2022-11-14T08:33:29.410Z,602.7
2022-11-14T08:34:31.621Z,602
2022-11-14T08:35:33.904Z,601.6
2022-11-14T08:36:36.114Z,601
2022-11-14T08:37:38.608Z,601.3
2022-11-14T08:38:40.569Z,601.7
2022-11-14T08:39:43.072Z,601.2
2022-11-14T08:40:45.582Z,601.4
2022-11-14T08:41:47.795Z,601.3
2022-11-14T08:42:49.495Z,601.6
2022-11-14T08:43:51.706Z,602
2022-11-14T08:44:54.441Z,602.4
2022-11-14T08:45:59.851Z,602.6
2022-11-14T08:47:03.304Z,602.5
2022-11-14T08:48:05.531Z,602.2
2022-11-14T08:49:07.735Z,601.5
2022-11-14T08:50:10.246Z,601.2
2022-11-14T08:51:13.010Z,600.5
2022-11-14T08:53:20.214Z,600.8
2022-11-14T08:54:22.685Z,600.7
2022-11-14T08:55:24.945Z,600.5
2022-11-14T08:56:27.146Z,600.4
2022-11-14T08:57:29.367Z,600.6
2022-11-14T08:58:34.481Z,600.8
2022-11-14T08:59:37.060Z,600.9
2022-11-14T09:00:39.319Z,600.8
2022-11-14T09:01:41.263Z,600.4
2022-11-14T09:02:43.491Z,600
2022-11-14T09:03:46.836Z,599.6
2022-11-14T09:04:49.685Z,599.9
2022-11-14T09:05:51.909Z,600.4
2022-11-14T09:06:54.498Z,600.2
2022-11-14T09:07:56.468Z,600.3
2022-11-14T09:08:58.647Z,600.9
2022-11-14T09:10:00.854Z,600.7
2022-11-14T09:12:08.048Z,600.5
2022-11-14T09:13:10.516Z,600.7
2022-11-14T09:14:12.776Z,601.2
2022-11-14T09:15:15.248Z,601.1
2022-11-14T09:16:17.179Z,601.2
2022-11-14T09:17:19.656Z,601.2
2022-11-14T09:18:21.591Z,601
2022-11-14T09:19:23.889Z,600.8
2022-11-14T09:21:30.840Z,600.7
2022-11-14T09:22:33.461Z,600.6
2022-11-14T09:23:36.179Z,600.4
2022-11-14T09:24:38.661Z,600.2
2022-11-14T09:25:40.891Z,599.9
2022-11-14T09:26:43.148Z,599.8
2022-11-14T09:27:45.635Z,599.7
2022-11-14T09:28:47.817Z,599.7
2022-11-14T09:29:50.357Z,599.7
2022-11-14T09:30:52.560Z,599.7
2022-11-14T09:31:54.751Z,600.3
2022-11-14T09:32:56.657Z,600.7
2022-11-14T09:33:58.875Z,600.8
2022-11-14T09:35:01.119Z,601.3
2022-11-14T09:36:03.606Z,601.5
2022-11-14T09:37:06.101Z,601.7
2022-11-14T09:38:08.676Z,601.9
2022-11-14T09:39:11.013Z,601.7
2022-11-14T09:40:13.491Z,601
2022-11-14T09:41:15.689Z,600.9
2022-11-14T09:42:19.564Z,600.3
2022-11-14T09:43:22.034Z,600
2022-11-14T09:44:24.517Z,600
2022-11-14T09:45:27.043Z,599.9
2022-11-14T09:46:29.262Z,600.1
2022-11-14T09:47:31.752Z,599.7
2022-11-14T09:48:34.599Z,599.6
2022-11-14T09:49:37.532Z,599.8
2022-11-14T09:50:40.022Z,600.1
2022-11-14T09:51:42.514Z,599.9
2022-11-14T09:52:44.438Z,600.2
2022-11-14T09:53:46.944Z,600.1
2022-11-14T09:54:49.146Z,599.7
2022-11-14T09:55:51.115Z,599.6
2022-11-14T09:56:53.327Z,599.6
2022-11-14T09:57:55.825Z,599.3
2022-11-14T09:58:58.052Z,599.3
2022-11-14T10:00:00.863Z,599
2022-11-14T10:02:08.029Z,598.9
2022-11-14T10:03:10.607Z,599.4
2022-11-14T10:04:12.254Z,599
2022-11-14T10:05:14.447Z,598.9
2022-11-14T10:06:16.951Z,599.1
2022-11-14T10:07:19.910Z,599.2
2022-11-14T10:08:22.124Z,599.1
2022-11-14T10:10:34.453Z,598.7
2022-11-14T10:11:38.126Z,598.9
2022-11-14T10:12:40.613Z,598.9
2022-11-14T10:13:42.568Z,599
2022-11-14T10:14:44.769Z,599
2022-11-14T10:15:47.271Z,598.9
2022-11-14T10:16:49.774Z,599.3
2022-11-14T10:17:52.035Z,599.2
2022-11-14T10:18:53.980Z,599.2
2022-11-14T10:19:56.191Z,599
2022-11-14T10:20:58.673Z,599.5
2022-11-14T10:22:01.167Z,599.5
2022-11-14T10:23:03.297Z,600.1
2022-11-14T10:24:05.807Z,599.9
2022-11-14T10:25:08.050Z,599.7
2022-11-14T10:26:10.588Z,599.5
2022-11-14T10:27:12.524Z,599.5
2022-11-14T10:28:14.740Z,599.5
2022-11-14T10:29:16.973Z,599.3
2022-11-14T10:30:19.500Z,599.7
2022-11-14T10:31:21.449Z,599.5
2022-11-14T10:32:23.676Z,599.2
2022-11-14T10:33:26.465Z,599.1
2022-11-14T10:34:28.931Z,599.4
2022-11-14T10:36:36.112Z,599.1
2022-11-14T10:37:38.322Z,599.3
2022-11-14T10:38:40.795Z,599.3
2022-11-14T10:39:43.273Z,599.5
2022-11-14T10:40:45.218Z,599.5
2022-11-14T10:42:52.749Z,599.2
2022-11-14T10:43:54.688Z,599.1
2022-11-14T10:44:56.947Z,599.1
2022-11-14T10:45:59.458Z,599.3
2022-11-14T10:47:01.939Z,598.7
2022-11-14T10:48:04.134Z,599
2022-11-14T10:49:06.085Z,598.8
2022-11-14T10:50:08.029Z,598.8
2022-11-14T10:51:10.232Z,598.3
2022-11-14T10:52:12.730Z,598.1
2022-11-14T10:53:14.650Z,598
2022-11-14T10:54:16.842Z,598.2
2022-11-14T10:55:19.574Z,598.4
2022-11-14T10:56:22.652Z,598.6
2022-11-14T10:57:24.560Z,597.9
2022-11-14T10:58:26.534Z,597.3
2022-11-14T10:59:28.824Z,597.6
2022-11-14T11:00:31.366Z,597.8
2022-11-14T11:01:34.021Z,597.5
2022-11-14T11:02:38.167Z,597.2
2022-11-14T11:03:41.013Z,597.3
2022-11-14T11:04:43.567Z,597.7
2022-11-14T11:05:46.045Z,597.7
2022-11-14T11:06:48.535Z,598
2022-11-14T11:07:50.182Z,597.1
2022-11-14T11:08:53.615Z,596.9
2022-11-14T11:09:55.870Z,597.3
2022-11-14T11:10:57.783Z,597.5
2022-11-14T11:11:59.993Z,597.1
2022-11-14T11:13:02.984Z,596.7
2022-11-14T11:14:05.271Z,596.5
2022-11-14T11:15:07.752Z,596.3
2022-11-14T11:16:09.983Z,596.1
2022-11-14T11:17:12.515Z,595.2
2022-11-14T11:18:14.986Z,594.8
2022-11-14T11:19:17.185Z,595
2022-11-14T11:20:19.691Z,595.3
2022-11-14T11:21:22.589Z,594.6
2022-11-14T11:22:24.939Z,594.2
2022-11-14T11:23:26.863Z,594.3
2022-11-14T11:24:29.067Z,594.2
2022-11-14T11:25:31.273Z,594.6
2022-11-14T11:26:33.484Z,594.8
2022-11-14T11:27:35.702Z,594.6
2022-11-14T11:28:37.920Z,594.7
2022-11-14T11:29:40.437Z,593.8
2022-11-14T11:30:42.918Z,593.6
2022-11-14T11:31:45.409Z,593.7
2022-11-14T11:32:47.615Z,593.7
2022-11-14T11:33:49.814Z,593.8
2022-11-14T11:34:52.000Z,593.2
2022-11-14T11:35:54.285Z,593.4
2022-11-14T11:36:56.750Z,592.5
2022-11-14T11:37:59.230Z,592.6
2022-11-14T11:39:01.426Z,592.9
2022-11-14T11:40:03.605Z,592.9
2022-11-14T11:42:12.543Z,592.7
2022-11-14T11:44:19.765Z,593.1
2022-11-14T11:45:22.323Z,593
2022-11-14T11:46:24.805Z,593.4
2022-11-14T11:47:27.326Z,593.2
2022-11-14T11:48:29.533Z,593.4
2022-11-14T11:49:31.997Z,593.1
2022-11-14T11:50:34.472Z,592.5
2022-11-14T11:51:37.002Z,593
2022-11-14T11:52:38.940Z,592.8
2022-11-14T11:53:41.135Z,592.5
2022-11-14T11:54:43.667Z,592.7
2022-11-14T11:55:45.876Z,592.7
2022-11-14T11:56:48.094Z,593.5
2022-11-14T11:57:50.578Z,593.5
2022-11-14T11:58:53.075Z,593.5
2022-11-14T11:59:55.557Z,593.5
2022-11-14T12:00:57.563Z,593.7
2022-11-14T12:01:59.756Z,593.3
2022-11-14T12:03:03.066Z,593.3
2022-11-14T12:04:06.123Z,593.3
2022-11-14T12:05:08.624Z,593.2
2022-11-14T12:06:11.131Z,593.4
2022-11-14T12:07:13.600Z,593.6
2022-11-14T12:09:21.115Z,593.7
2022-11-14T12:10:23.321Z,593.6
2022-11-14T12:11:25.524Z,593.9
2022-11-14T12:12:27.722Z,593.4
2022-11-14T12:13:32.058Z,593.5
2022-11-14T12:14:34.844Z,593.7
2022-11-14T12:15:36.788Z,593.7
2022-11-14T12:16:39.320Z,593.3
2022-11-14T12:17:41.526Z,593.6
2022-11-14T12:18:43.748Z,593.8
2022-11-14T12:19:46.228Z,593.8
2022-11-14T12:20:48.697Z,593.5
2022-11-14T12:22:56.234Z,593.5
2022-11-14T12:23:58.700Z,593.6
2022-11-14T12:25:01.189Z,593.8
2022-11-14T12:26:03.106Z,593.3
2022-11-14T12:27:05.537Z,593.3
2022-11-14T12:28:08.438Z,593.1
2022-11-14T12:29:10.095Z,593.1
2022-11-14T12:30:12.030Z,592.8
2022-11-14T12:31:13.959Z,592.7
2022-11-14T12:32:16.215Z,592.6
2022-11-14T12:33:18.416Z,592.3
2022-11-14T12:34:21.272Z,591.9
2022-11-14T12:35:24.382Z,592.2
2022-11-14T12:36:26.646Z,592.4
2022-11-14T12:37:29.505Z,592.3
2022-11-14T12:38:31.776Z,592.1
2022-11-14T12:39:34.271Z,592.5
2022-11-14T12:40:36.477Z,592.3
2022-11-14T12:41:38.379Z,592.3
2022-11-14T12:42:40.582Z,592
2022-11-14T12:43:45.500Z,592.4
2022-11-14T12:44:48.076Z,592.6
2022-11-14T12:45:50.571Z,592.3
2022-11-14T12:46:52.322Z,592
2022-11-14T12:47:54.850Z,592.5
2022-11-14T12:48:57.103Z,592.5
2022-11-14T12:49:59.603Z,592.5
2022-11-14T12:51:01.514Z,591.8
2022-11-14T12:52:03.728Z,591.8
2022-11-14T12:53:05.929Z,591.7
2022-11-14T12:54:08.500Z,591.5
2022-11-14T12:55:10.710Z,591.9
2022-11-14T12:56:13.218Z,591.8
2022-11-14T12:57:15.412Z,591.7
2022-11-14T12:58:17.638Z,591.9
2022-11-14T12:59:19.840Z,590.9
2022-11-14T13:00:22.317Z,591.6
2022-11-14T13:01:24.748Z,591.5
2022-11-14T13:02:26.722Z,591.1
2022-11-14T13:03:31.087Z,591.4
2022-11-14T13:04:33.478Z,590.9
2022-11-14T13:05:35.705Z,590.9
2022-11-14T13:06:38.179Z,591.6
2022-11-14T13:07:40.747Z,591.5
2022-11-14T13:08:42.983Z,591.1
2022-11-14T13:09:45.532Z,591.5
2022-11-14T13:10:47.748Z,591.6
2022-11-14T13:11:49.955Z,591.2
2022-11-14T13:12:52.440Z,591.3
2022-11-14T13:13:54.921Z,591.4
2022-11-14T13:14:57.412Z,592
2022-11-14T13:15:59.614Z,591.7
2022-11-14T13:17:02.095Z,591.8
2022-11-14T13:18:03.731Z,591.7
2022-11-14T13:19:06.258Z,592
2022-11-14T13:20:08.739Z,591.4
2022-11-14T13:21:10.684Z,591.7
2022-11-14T13:22:12.898Z,592
2022-11-14T13:23:15.382Z,592
2022-11-14T13:24:17.874Z,592.1
2022-11-14T13:25:20.794Z,592.3
2022-11-14T13:26:23.273Z,592.3
2022-11-14T13:28:29.888Z,592.8
2022-11-14T13:29:32.358Z,593
2022-11-14T13:30:34.836Z,593.1
2022-11-14T13:31:37.027Z,592.8
2022-11-14T13:32:39.536Z,592.8
2022-11-14T13:33:42.028Z,592.8
2022-11-14T13:34:44.562Z,592.8
2022-11-14T13:35:47.053Z,593.2
2022-11-14T13:36:49.565Z,592.8
2022-11-14T13:37:51.769Z,593
2022-11-14T13:38:54.262Z,593
2022-11-14T13:39:56.185Z,592.9
2022-11-14T13:40:58.846Z,592.7
2022-11-14T13:42:01.589Z,592.8
2022-11-14T13:43:04.087Z,592.8
2022-11-14T13:44:06.044Z,592.9
2022-11-14T13:45:08.526Z,593
2022-11-14T13:46:10.453Z,593.4
2022-11-14T13:47:12.388Z,593.3
2022-11-14T13:48:14.572Z,592.9
2022-11-14T13:49:17.060Z,593.2
2022-11-14T13:50:19.101Z,592.8
2022-11-14T13:52:26.035Z,593.4
2022-11-14T13:53:29.491Z,593.2
2022-11-14T13:54:32.199Z,593.3